Time;durP1;ratioP1;P1;durP2;ratioP2;P2;SDS_P1;SDS_P2;PMS_P1;PMS_P2;Temp;Humidity;BMP_temperature;BMP_pressure;BME280_temperature;BME280_humidity;BME280_pressure;Samples;Min_cycle;Max_cycle;Signal;HPM_P1;HPM_P2
2022/11/02 00:00:59;;;;;;;3.95;1.85;;;22.00;58.70;;;;;;5053189;28;20043;-44
2022/11/02 00:03:24;;;;;;;4.28;1.77;;;22.00;58.50;;;;;;5042542;28;20124;-44
2022/11/02 00:05:50;;;;;;;3.67;1.77;;;22.00;58.60;;;;;;5049677;28;20100;-44
2022/11/02 00:08:15;;;;;;;3.10;1.60;;;22.00;58.60;;;;;;5052905;28;20370;-44
2022/11/02 00:10:41;;;;;;;2.28;1.40;;;22.00;58.60;;;;;;5052821;28;20155;-44
2022/11/02 00:13:06;;;;;;;3.63;2.00;;;22.00;58.60;;;;;;5052787;28;20021;-45
2022/11/02 00:15:34;;;;;;;3.67;1.80;;;22.00;58.60;;;;;;5048801;28;20021;-44
2022/11/02 00:18:04;;;;;;;3.13;1.70;;;22.00;58.50;;;;;;5053149;28;20051;-49
2022/11/02 00:20:31;;;;;;;2.13;1.17;;;22.00;58.40;;;;;;5052551;28;20439;-44
2022/11/02 00:22:59;;;;;;;2.53;1.52;;;22.00;58.50;;;;;;5052580;28;20049;-44
2022/11/02 00:25:27;;;;;;;2.90;1.50;;;22.00;58.40;;;;;;5052684;28;20048;-44
2022/11/02 00:27:52;;;;;;;2.42;1.52;;;22.00;58.30;;;;;;5052957;28;20028;-45
2022/11/02 00:30:18;;;;;;;4.45;1.67;;;22.00;58.40;;;;;;5051716;28;20036;-44
2022/11/02 00:32:44;;;;;;;2.97;1.58;;;22.00;58.50;;;;;;5048855;28;20051;-44
2022/11/02 00:35:10;;;;;;;1.88;1.40;;;22.00;58.30;;;;;;5051483;28;20489;-44
2022/11/02 00:37:36;;;;;;;2.05;1.38;;;22.00;59.00;;;;;;5052942;28;20028;-44
2022/11/02 00:40:01;;;;;;;2.72;1.23;;;22.00;58.40;;;;;;5050775;28;20021;-50
2022/11/02 00:42:27;;;;;;;2.45;1.30;;;22.00;58.40;;;;;;5052084;28;20412;-44
2022/11/02 00:44:53;;;;;;;3.38;1.40;;;22.00;58.30;;;;;;5052034;28;20017;-44
2022/11/02 00:47:18;;;;;;;2.08;1.20;;;22.00;58.30;;;;;;5049604;28;20264;-46
2022/11/02 00:49:44;;;;;;;2.75;1.27;;;22.00;58.20;;;;;;5058188;28;20078;-44
2022/11/02 00:52:09;;;;;;;2.60;1.70;;;22.00;58.30;;;;;;5052042;28;20029;-44
2022/11/02 00:54:35;;;;;;;2.42;1.30;;;22.00;58.30;;;;;;5051742;28;20036;-44
2022/11/02 00:57:01;;;;;;;2.97;1.75;;;22.00;58.20;;;;;;5050359;28;20049;-50
2022/11/02 00:59:26;;;;;;;2.53;1.30;;;22.00;58.30;;;;;;5051204;28;20076;-44
2022/11/02 01:01:52;;;;;;;2.60;1.38;;;22.00;58.30;;;;;;5051711;28;20033;-44
2022/11/02 01:04:17;;;;;;;1.70;1.27;;;22.00;58.20;;;;;;5049064;28;20027;-44
2022/11/02 01:06:44;;;;;;;2.67;1.10;;;22.00;58.20;;;;;;5061241;28;20040;-44
2022/11/02 01:09:10;;;;;;;2.47;1.30;;;22.00;58.20;;;;;;5051196;28;20037;-45
2022/11/02 01:11:36;;;;;;;2.45;1.38;;;22.00;58.80;;;;;;5052755;28;20143;-44
2022/11/02 01:14:02;;;;;;;3.97;1.50;;;22.00;58.20;;;;;;5050751;28;20099;-49
2022/11/02 01:16:28;;;;;;;3.33;1.45;;;21.90;58.20;;;;;;5052232;28;20021;-44
2022/11/02 01:18:55;;;;;;;2.13;1.35;;;21.90;58.10;;;;;;5052427;28;20454;-44
2022/11/02 01:21:21;;;;;;;3.15;1.20;;;21.90;58.10;;;;;;5049856;28;20094;-47
2022/11/02 01:23:46;;;;;;;1.75;1.20;;;21.90;58.10;;;;;;5058335;28;20111;-44
2022/11/02 01:26:12;;;;;;;2.70;1.20;;;21.90;58.10;;;;;;5050760;28;20021;-45
2022/11/02 01:28:38;;;;;;;2.17;1.30;;;21.90;58.10;;;;;;5051465;28;20040;-43
2022/11/02 01:31:05;;;;;;;2.47;1.02;;;21.90;58.10;;;;;;5049928;28;20027;-44
2022/11/02 01:33:31;;;;;;;2.85;1.50;;;21.90;58.10;;;;;;5051550;28;20053;-44
2022/11/02 01:35:57;;;;;;;1.65;1.08;;;21.90;58.10;;;;;;5051591;28;20099;-44
2022/11/02 01:38:24;;;;;;;1.75;1.00;;;21.90;58.10;;;;;;5045646;28;20044;-44
2022/11/02 01:40:49;;;;;;;3.17;1.55;;;21.90;58.10;;;;;;5059729;28;20045;-44
2022/11/02 01:43:23;;;;;;;2.25;1.20;;;21.90;58.10;;;;;;5037422;28;20059;-44
2022/11/02 01:46:05;;;;;;;2.97;1.58;;;21.90;58.10;;;;;;5051571;28;20343;-43
2022/11/02 01:48:56;;;;;;;2.13;1.08;;;21.90;58.20;;;;;;5051004;28;20040;-44
2022/11/02 01:51:39;;;;;;;2.15;1.02;;;21.90;58.10;;;;;;5028224;28;20117;-43
2022/11/02 01:54:13;;;;;;;2.33;1.20;;;21.90;58.10;;;;;;5036897;28;20104;-49
2022/11/02 01:56:40;;;;;;;2.65;1.63;;;21.90;58.10;;;;;;5052114;28;20067;-43
2022/11/02 01:59:11;;;;;;;1.85;0.95;;;21.90;58.10;;;;;;5051842;28;20033;-43
2022/11/02 02:01:37;;;;;;;2.37;1.53;;;21.90;58.10;;;;;;5051883;28;20024;-44
2022/11/02 02:04:04;;;;;;;2.08;1.55;;;21.90;58.10;;;;;;5050056;28;20604;-49
2022/11/02 02:06:29;;;;;;;2.40;0.90;;;21.90;58.10;;;;;;5051782;28;20025;-43
2022/11/02 02:08:59;;;;;;;2.10;0.85;;;21.90;58.10;;;;;;5051225;28;20035;-43
2022/11/02 02:11:37;;;;;;;3.60;1.55;;;21.90;58.10;;;;;;5050798;28;20045;-44
2022/11/02 02:14:06;;;;;;;1.40;1.00;;;21.90;58.10;;;;;;5057653;28;20033;-49
2022/11/02 02:16:57;;;;;;;1.52;1.08;;;21.90;58.00;;;;;;5051384;28;20477;-44
2022/11/02 02:19:41;;;;;;;1.75;0.98;;;21.90;58.00;;;;;;5050675;28;20028;-43
2022/11/02 02:22:07;;;;;;;1.20;1.05;;;21.90;58.10;;;;;;5049862;28;20028;-43
2022/11/02 02:25:13;;;;;;;2.45;0.93;;;21.90;58.00;;;;;;5051050;28;20033;-44
2022/11/02 02:27:51;;;;;;;1.85;1.10;;;21.90;58.70;;;;;;5051276;28;20025;-44
2022/11/02 02:30:18;;;;;;;2.25;1.20;;;21.90;58.00;;;;;;5048079;28;20021;-44
2022/11/02 02:33:00;;;;;;;2.38;0.88;;;21.90;58.00;;;;;;5052601;28;20502;-43
2022/11/02 02:35:34;;;;;;;2.55;0.98;;;21.90;58.00;;;;;;5050737;28;20017;-44
2022/11/02 02:38:02;;;;;;;1.67;1.00;;;21.90;58.00;;;;;;5050092;28;20201;-50
2022/11/02 02:40:41;;;;;;;2.08;0.80;;;21.90;58.00;;;;;;5038932;28;20045;-44
2022/11/02 02:43:26;;;;;;;2.35;1.02;;;21.90;58.00;;;;;;5037092;28;20368;-44
2022/11/02 02:46:05;;;;;;;1.38;1.00;;;21.90;58.00;;;;;;5050687;28;20482;-44
2022/11/02 02:48:33;;;;;;;1.83;1.00;;;21.90;58.00;;;;;;5048136;28;20485;-44
2022/11/02 02:51:08;;;;;;;1.85;1.02;;;21.90;58.00;;;;;;5050680;28;20016;-47
2022/11/02 02:53:40;;;;;;;1.05;0.80;;;21.90;58.00;;;;;;5051362;28;20373;-44
2022/11/02 02:56:08;;;;;;;2.45;1.00;;;21.90;58.00;;;;;;5043866;28;20374;-44
2022/11/02 02:58:44;;;;;;;2.95;1.20;;;21.90;58.00;;;;;;5051328;28;20029;-44
2022/11/02 03:01:13;;;;;;;3.10;1.65;;;21.90;58.60;;;;;;5049730;28;20042;-44
2022/11/02 03:03:41;;;;;;;2.58;1.30;;;21.90;58.00;;;;;;5038990;28;20331;-47
2022/11/02 03:06:15;;;;;;;3.08;1.48;;;21.90;58.00;;;;;;5060640;28;20036;-44
2022/11/02 03:08:46;;;;;;;1.38;0.90;;;21.90;57.90;;;;;;5041601;28;20034;-44
2022/11/02 03:11:17;;;;;;;2.70;0.95;;;21.90;58.00;;;;;;5045951;28;20013;-44
2022/11/02 03:14:17;;;;;;;1.00;0.65;;;21.90;58.00;;;;;;5036842;28;20026;-44
2022/11/02 03:17:16;;;;;;;2.22;1.13;;;21.90;58.00;;;;;;5054818;28;20461;-45
2022/11/02 03:20:01;;;;;;;1.90;1.45;;;21.80;57.90;;;;;;5050388;28;20094;-45
2022/11/02 03:22:33;;;;;;;2.13;1.00;;;21.80;57.90;;;;;;5054164;28;20075;-44
2022/11/02 03:25:11;;;;;;;1.73;0.98;;;21.80;57.90;;;;;;5040466;28;20021;-49
2022/11/02 03:27:55;;;;;;;1.85;1.00;;;21.80;57.90;;;;;;5054067;28;20466;-44
2022/11/02 03:30:23;;;;;;;3.67;1.25;;;21.80;57.90;;;;;;5052257;28;20028;-44
2022/11/02 03:33:15;;;;;;;2.60;0.80;;;21.80;57.90;;;;;;5054062;28;20388;-44
2022/11/02 03:35:51;;;;;;;2.85;0.90;;;21.90;58.00;;;;;;5055352;28;20032;-44
2022/11/02 03:38:22;;;;;;;2.35;0.88;;;21.80;57.90;;;;;;5053153;28;20454;-44
2022/11/02 03:40:51;;;;;;;2.35;1.00;;;21.80;57.90;;;;;;5053839;28;20029;-44
2022/11/02 03:43:19;;;;;;;1.80;1.10;;;21.80;57.90;;;;;;5039746;28;20033;-45
2022/11/02 03:45:53;;;;;;;2.08;1.00;;;21.80;57.80;;;;;;5053560;28;20029;-44
2022/11/02 03:48:22;;;;;;;1.20;0.80;;;21.80;57.90;;;;;;5052623;28;20830;-44
2022/11/02 03:50:50;;;;;;;1.75;0.88;;;21.80;57.80;;;;;;5049605;28;20430;-44
2022/11/02 03:53:33;;;;;;;1.58;0.80;;;21.80;57.80;;;;;;5053489;28;20032;-44
2022/11/02 03:56:21;;;;;;;3.88;1.00;;;21.80;57.80;;;;;;5053448;28;20021;-48
2022/11/02 03:58:47;;;;;;;0.93;0.60;;;21.80;57.80;;;;;;5052822;28;20417;-44
2022/11/02 04:01:15;;;;;;;1.38;1.00;;;21.80;57.80;;;;;;5052467;28;20021;-44
2022/11/02 04:03:44;;;;;;;1.33;0.80;;;21.80;57.80;;;;;;5052933;28;20048;-44
2022/11/02 04:06:11;;;;;;;1.67;0.80;;;21.80;57.80;;;;;;5052632;28;20053;-44
2022/11/02 04:08:41;;;;;;;4.32;1.02;;;21.80;57.70;;;;;;5048930;28;20033;-43
2022/11/02 04:16:35;;;;;;;1.63;0.70;;;21.80;57.70;;;;;;5052587;28;20576;-44
2022/11/02 04:27:15;;;;;;;1.38;0.55;;;21.80;57.70;;;;;;5051794;28;20100;-46
2022/11/02 04:29:41;;;;;;;1.67;0.77;;;21.80;57.70;;;;;;5056528;28;20023;-44
2022/11/02 04:32:06;;;;;;;2.78;0.93;;;21.80;57.80;;;;;;5060079;28;20494;-45
2022/11/02 04:34:32;;;;;;;1.05;0.60;;;21.80;57.70;;;;;;5060812;28;20025;-44
2022/11/02 04:36:58;;;;;;;1.42;0.80;;;21.80;57.70;;;;;;5061006;28;20068;-44
2022/11/02 04:39:23;;;;;;;1.27;0.88;;;21.80;57.80;;;;;;5059275;28;20153;-45
2022/11/02 04:41:49;;;;;;;2.72;0.90;;;21.80;57.80;;;;;;5059932;28;20008;-44
2022/11/02 04:44:15;;;;;;;2.85;0.90;;;21.80;57.70;;;;;;5056224;28;20055;-46
2022/11/02 04:46:42;;;;;;;1.80;0.63;;;21.80;57.70;;;;;;5058138;28;20048;-44
2022/11/02 04:49:09;;;;;;;0.95;0.73;;;21.80;57.70;;;;;;5061125;28;20442;-46
2022/11/02 04:51:35;;;;;;;3.05;0.68;;;21.80;57.70;;;;;;5061202;28;20020;-44
2022/11/02 04:54:02;;;;;;;0.60;0.60;;;21.80;57.70;;;;;;5056630;28;20017;-49
2022/11/02 04:56:28;;;;;;;2.42;1.00;;;21.80;57.60;;;;;;5059191;28;20073;-45
2022/11/02 04:58:56;;;;;;;2.03;0.70;;;21.80;57.70;;;;;;5062151;28;20063;-44
2022/11/02 05:01:24;;;;;;;1.33;0.82;;;21.80;57.60;;;;;;5056679;28;20017;-44
2022/11/02 05:03:51;;;;;;;1.25;0.88;;;21.80;57.60;;;;;;5055833;28;20057;-44
2022/11/02 05:06:18;;;;;;;1.95;0.80;;;21.80;57.60;;;;;;5059545;28;20016;-45
2022/11/02 05:08:44;;;;;;;1.45;0.85;;;21.80;57.60;;;;;;5060151;28;20029;-45
2022/11/02 05:11:10;;;;;;;2.95;1.15;;;21.80;57.60;;;;;;5058748;28;20032;-44
2022/11/02 05:13:38;;;;;;;2.30;1.00;;;21.80;57.60;;;;;;5061210;28;20028;-45
2022/11/02 05:16:05;;;;;;;1.33;0.70;;;21.80;57.60;;;;;;5060350;28;20021;-50
2022/11/02 05:18:30;;;;;;;1.45;0.70;;;21.80;57.60;;;;;;5058346;28;20063;-46
2022/11/02 05:20:58;;;;;;;1.85;0.70;;;21.80;57.60;;;;;;5056633;28;20047;-46
2022/11/02 05:23:24;;;;;;;2.78;1.05;;;21.80;57.50;;;;;;5056786;28;20035;-46
2022/11/02 05:25:54;;;;;;;1.15;0.60;;;21.80;57.50;;;;;;5060205;28;20033;-45
2022/11/02 05:28:20;;;;;;;1.70;0.88;;;21.80;57.50;;;;;;5056815;28;20020;-45
2022/11/02 05:30:46;;;;;;;2.30;1.00;;;21.80;57.50;;;;;;5059170;28;20036;-45
2022/11/02 05:33:11;;;;;;;1.40;0.93;;;21.80;57.40;;;;;;5057712;28;20049;-42
2022/11/02 05:35:37;;;;;;;1.80;0.70;;;21.80;57.50;;;;;;5060610;28;20020;-46
2022/11/02 05:38:03;;;;;;;1.55;0.80;;;21.80;57.40;;;;;;5057025;28;20049;-45
2022/11/02 05:40:28;;;;;;;1.90;0.90;;;21.80;57.40;;;;;;5053767;28;20020;-44
2022/11/02 05:43:00;;;;;;;2.60;0.80;;;21.80;57.40;;;;;;5057572;28;20048;-46
2022/11/02 05:45:25;;;;;;;;;;;21.80;57.30;;;;;;5058054;28;20487;-45
2022/11/02 05:47:51;;;;;;;3.28;1.10;;;21.80;57.40;;;;;;5061092;28;20007;-44
2022/11/02 05:50:17;;;;;;;1.67;0.60;;;21.80;57.40;;;;;;5058526;28;20101;-44
2022/11/02 05:52:43;;;;;;;2.17;0.75;;;21.80;57.40;;;;;;5057930;28;20023;-46
2022/11/02 05:55:09;;;;;;;2.05;0.70;;;21.80;57.40;;;;;;5057584;28;20457;-44
2022/11/02 05:57:34;;;;;;;1.08;0.60;;;21.80;57.30;;;;;;5053451;28;20021;-45
2022/11/02 06:00:00;;;;;;;1.27;0.75;;;21.80;57.40;;;;;;5059170;28;20020;-50
2022/11/02 06:02:25;;;;;;;1.20;0.88;;;21.80;57.40;;;;;;5048860;28;20017;-44
2022/11/02 06:04:51;;;;;;;1.48;0.73;;;21.80;57.30;;;;;;5040347;28;20056;-44
2022/11/02 06:07:17;;;;;;;2.30;0.80;;;21.80;57.30;;;;;;5050668;28;20031;-44
2022/11/02 06:09:42;;;;;;;3.65;0.93;;;21.80;57.30;;;;;;5051258;28;20021;-44
2022/11/02 06:12:08;;;;;;;1.15;0.60;;;21.80;57.30;;;;;;5050779;28;20110;-44
2022/11/02 06:14:33;;;;;;;1.58;0.93;;;21.80;57.30;;;;;;5050707;28;20046;-44
2022/11/02 06:16:59;;;;;;;0.77;0.60;;;21.80;57.20;;;;;;5055423;28;20098;-50
2022/11/02 06:19:24;;;;;;;1.85;0.80;;;21.80;57.20;;;;;;5049414;28;20075;-43
2022/11/02 06:21:50;;;;;;;2.47;1.25;;;21.80;57.20;;;;;;5051823;28;20028;-44
2022/11/02 06:24:16;;;;;;;1.67;0.68;;;21.80;57.20;;;;;;5050737;28;20025;-44
2022/11/02 06:26:41;;;;;;;2.13;1.30;;;21.80;57.20;;;;;;5051488;28;20021;-44
2022/11/02 06:29:07;;;;;;;2.80;0.73;;;21.80;57.20;;;;;;5050215;28;20504;-44
2022/11/02 06:31:32;;;;;;;3.42;1.08;;;21.80;57.20;;;;;;5050538;28;20061;-44
2022/11/02 06:33:58;;;;;;;2.20;0.73;;;21.80;57.20;;;;;;5051513;28;20374;-45
2022/11/02 06:36:24;;;;;;;1.85;0.70;;;21.80;57.90;;;;;;5049026;28;20021;-44
2022/11/02 06:38:50;;;;;;;1.52;0.60;;;21.80;57.20;;;;;;5051446;28;20036;-44
2022/11/02 06:41:15;;;;;;;5.50;1.23;;;21.80;57.10;;;;;;5052724;28;20094;-44
2022/11/02 06:43:41;;;;;;;3.35;1.35;;;21.80;57.20;;;;;;5055135;28;20021;-44
2022/11/02 06:46:07;;;;;;;1.02;0.70;;;21.80;57.20;;;;;;5053593;28;20439;-44
2022/11/02 06:48:34;;;;;;;2.15;0.80;;;21.80;57.20;;;;;;5052372;28;20450;-44
2022/11/02 06:50:59;;;;;;;1.75;1.30;;;21.80;57.10;;;;;;5058485;28;20029;-51
2022/11/02 06:53:25;;;;;;;1.67;0.80;;;21.80;57.20;;;;;;5053876;28;20397;-44
2022/11/02 06:55:52;;;;;;;1.75;0.90;;;21.70;57.10;;;;;;5054187;28;20484;-44
2022/11/02 06:58:18;;;;;;;2.75;0.80;;;21.80;57.20;;;;;;5054243;28;20362;-44
2022/11/02 07:00:43;;;;;;;0.70;0.52;;;21.80;57.20;;;;;;5054692;28;20056;-44
2022/11/02 07:03:09;;;;;;;1.55;0.47;;;21.80;57.10;;;;;;5054087;28;20025;-44
2022/11/02 07:05:36;;;;;;;1.33;0.70;;;21.80;57.20;;;;;;5057994;28;20048;-45
2022/11/02 07:08:02;;;;;;;1.58;0.70;;;21.80;57.20;;;;;;5036289;28;20461;-51
2022/11/02 07:10:28;;;;;;;3.67;1.63;;;21.80;57.20;;;;;;5053164;28;20017;-45
2022/11/02 07:12:55;;;;;;;2.67;0.90;;;21.70;57.20;;;;;;5054916;28;20358;-43
2022/11/02 07:15:22;;;;;;;2.50;0.65;;;21.80;57.10;;;;;;5052914;28;20025;-44
2022/11/02 07:17:47;;;;;;;1.35;1.13;;;21.80;57.10;;;;;;5054442;28;20059;-44
2022/11/02 07:20:14;;;;;;;1.33;0.70;;;21.80;57.10;;;;;;5052983;28;20017;-44
2022/11/02 07:22:40;;;;;;;1.73;0.70;;;21.80;57.10;;;;;;5048524;28;20037;-44
2022/11/02 07:25:07;;;;;;;4.20;1.25;;;21.70;53.30;;;;;;5053547;28;20372;-46
2022/11/02 07:27:39;;;;;;;6.03;1.35;;;21.60;51.10;;;;;;5033396;28;20040;-44
2022/11/02 07:30:06;;;;;;;4.70;1.42;;;21.50;51.00;;;;;;5048230;28;20040;-44
2022/11/02 07:32:41;;;;;;;3.38;0.98;;;21.70;52.60;;;;;;5056456;28;20524;-44
2022/11/02 07:35:10;;;;;;;3.25;0.90;;;21.70;53.40;;;;;;5043796;28;20112;-44
2022/11/02 07:37:36;;;;;;;4.50;1.13;;;21.70;54.70;;;;;;5054016;28;20048;-43
2022/11/02 07:40:02;;;;;;;2.58;0.90;;;21.80;55.70;;;;;;5053150;28;20455;-50
2022/11/02 07:42:28;;;;;;;3.30;0.70;;;21.80;55.90;;;;;;5042356;28;20018;-44
2022/11/02 07:44:53;;;;;;;4.13;0.77;;;21.80;56.00;;;;;;5051149;28;20020;-43
2022/11/02 07:47:19;;;;;;;4.80;0.90;;;21.80;56.10;;;;;;5031995;28;20116;-44
2022/11/02 07:49:44;;;;;;;2.92;1.05;;;21.90;56.20;;;;;;5053538;28;20080;-44
2022/11/02 07:52:10;;;;;;;2.97;0.95;;;21.80;56.40;;;;;;5052600;28;20451;-44
2022/11/02 07:54:36;;;;;;;6.18;1.13;;;21.90;56.50;;;;;;5053290;28;20036;-46
2022/11/02 07:57:01;;;;;;;2.75;0.63;;;21.90;56.70;;;;;;5052607;28;20121;-50
2022/11/02 07:59:27;;;;;;;2.15;1.13;;;21.90;56.90;;;;;;5053155;28;20017;-44
2022/11/02 08:01:52;;;;;;;3.95;1.00;;;21.90;57.50;;;;;;5045109;28;20032;-44
2022/11/02 08:04:18;;;;;;;1.85;0.68;;;21.90;57.10;;;;;;5038164;28;20357;-44
2022/11/02 08:06:44;;;;;;;3.00;1.02;;;21.90;57.20;;;;;;5052995;28;20415;-44
2022/11/02 08:09:09;;;;;;;3.00;1.00;;;21.90;57.30;;;;;;5051892;28;20064;-44
2022/11/02 08:11:35;;;;;;;1.48;0.90;;;21.90;57.60;;;;;;5053204;28;20095;-44
2022/11/02 08:14:01;;;;;;;2.10;0.80;;;21.90;57.60;;;;;;5053086;28;20060;-50
2022/11/02 08:16:27;;;;;;;3.25;0.80;;;21.90;57.60;;;;;;5052731;28;20095;-44
2022/11/02 08:18:53;;;;;;;3.33;1.13;;;21.90;57.70;;;;;;5052649;28;20047;-44
2022/11/02 08:21:18;;;;;;;2.92;1.10;;;21.90;57.80;;;;;;5047061;28;20526;-44
2022/11/02 08:23:44;;;;;;;2.90;0.90;;;21.90;57.80;;;;;;5059220;28;20021;-44
2022/11/02 08:26:10;;;;;;;3.50;0.75;;;21.90;57.80;;;;;;5052075;28;20045;-44
2022/11/02 08:28:39;;;;;;;2.22;0.80;;;21.90;57.90;;;;;;5048713;28;20426;-44
2022/11/02 08:31:06;;;;;;;4.78;0.90;;;21.90;58.50;;;;;;5043674;28;20462;-45
2022/11/02 08:33:31;;;;;;;2.88;1.17;;;21.90;57.90;;;;;;5052390;28;20064;-44
2022/11/02 08:36:03;;;;;;;1.75;0.60;;;21.90;57.90;;;;;;5052007;28;20055;-43
2022/11/02 08:38:28;;;;;;;3.38;1.13;;;21.90;58.00;;;;;;5040928;28;20025;-44
2022/11/02 08:40:54;;;;;;;4.05;1.15;;;21.90;58.00;;;;;;5052692;28;20078;-43
2022/11/02 08:43:20;;;;;;;3.75;1.05;;;21.90;57.90;;;;;;5052295;28;20029;-44
2022/11/02 08:45:45;;;;;;;2.63;0.75;;;21.90;58.00;;;;;;5052537;28;20025;-44
2022/11/02 08:48:11;;;;;;;2.53;1.20;;;21.90;58.10;;;;;;5051590;28;20466;-43
2022/11/02 08:50:37;;;;;;;3.22;1.23;;;21.90;58.20;;;;;;5052278;28;20020;-44
2022/11/02 08:53:03;;;;;;;2.70;0.70;;;21.90;58.20;;;;;;5051431;28;20029;-50
2022/11/02 08:55:29;;;;;;;1.92;0.70;;;21.90;58.20;;;;;;5045522;28;20021;-44
2022/11/02 08:57:57;;;;;;;1.77;0.80;;;21.90;58.20;;;;;;5055533;28;20104;-44
2022/11/02 09:00:25;;;;;;;3.13;1.00;;;21.90;58.10;;;;;;5051462;28;20139;-44
2022/11/02 09:03:04;;;;;;;2.10;0.80;;;21.90;58.20;;;;;;5052065;28;20082;-43
2022/11/02 09:05:32;;;;;;;0.98;0.60;;;21.90;58.10;;;;;;5051846;28;20083;-44
2022/11/02 09:08:00;;;;;;;1.73;0.70;;;21.90;58.10;;;;;;5044840;28;20037;-43
2022/11/02 09:10:28;;;;;;;3.17;1.05;;;21.90;58.20;;;;;;5043826;28;20017;-44
2022/11/02 09:12:54;;;;;;;4.68;0.82;;;21.90;58.20;;;;;;5041157;28;20024;-44
2022/11/02 09:15:20;;;;;;;3.40;1.40;;;21.90;58.10;;;;;;5037555;28;20065;-44
2022/11/02 09:17:47;;;;;;;2.92;1.02;;;21.90;58.20;;;;;;5052652;28;20079;-44
2022/11/02 09:20:14;;;;;;;4.38;0.90;;;21.90;58.80;;;;;;5051093;28;20056;-44
2022/11/02 09:22:39;;;;;;;3.10;1.05;;;21.90;58.20;;;;;;5051845;28;20016;-44
2022/11/02 09:25:05;;;;;;;3.08;1.15;;;21.90;58.20;;;;;;5050857;28;20078;-44
2022/11/02 09:27:31;;;;;;;2.00;0.93;;;21.90;58.20;;;;;;5049661;28;20053;-43
2022/11/02 09:29:56;;;;;;;2.25;0.70;;;21.90;58.20;;;;;;5046605;28;20474;-43
2022/11/02 09:32:22;;;;;;;2.97;0.80;;;21.90;58.30;;;;;;5042222;28;20125;-43
2022/11/02 09:34:49;;;;;;;2.28;1.05;;;21.90;58.30;;;;;;5046326;28;20036;-44
2022/11/02 09:37:15;;;;;;;2.13;0.90;;;21.90;58.30;;;;;;5051336;28;20024;-44
2022/11/02 09:39:40;;;;;;;2.55;1.20;;;21.90;58.20;;;;;;5051221;28;20032;-43
2022/11/02 09:42:11;;;;;;;3.25;1.02;;;21.90;58.30;;;;;;5051294;28;20044;-43
2022/11/02 09:44:52;;;;;;;1.70;0.63;;;21.90;58.30;;;;;;5049293;28;20099;-44
2022/11/02 09:47:19;;;;;;;3.20;0.80;;;21.90;58.30;;;;;;5051251;28;20079;-43
2022/11/02 09:49:44;;;;;;;5.15;1.35;;;21.90;58.30;;;;;;5051414;28;20017;-44
2022/11/02 09:52:28;;;;;;;3.40;0.80;;;21.90;58.30;;;;;;5050989;28;20031;-44
2022/11/02 09:54:57;;;;;;;1.73;0.60;;;21.90;58.30;;;;;;5051415;28;20028;-44
2022/11/02 09:57:29;;;;;;;1.35;0.70;;;22.00;58.30;;;;;;5054300;28;20101;-43
2022/11/02 09:59:55;;;;;;;2.58;0.60;;;22.00;58.40;;;;;;5050594;28;20028;-44
2022/11/02 10:02:20;;;;;;;2.38;0.60;;;22.00;58.40;;;;;;5038805;28;20030;-43
2022/11/02 10:04:49;;;;;;;2.88;0.80;;;21.90;58.30;;;;;;5051096;28;20012;-44
2022/11/02 10:07:17;;;;;;;1.88;0.68;;;22.00;58.40;;;;;;5050775;28;20100;-43
2022/11/02 10:09:56;;;;;;;2.33;0.80;;;22.00;58.40;;;;;;5051096;28;20025;-44
2022/11/02 10:12:36;;;;;;;1.63;0.60;;;22.00;58.40;;;;;;5053649;28;20112;-45
2022/11/02 10:15:25;;;;;;;2.78;0.90;;;22.00;58.40;;;;;;5054585;28;20040;-50
2022/11/02 10:17:56;;;;;;;10.23;0.95;;;21.90;58.40;;;;;;5059189;28;20096;-44
2022/11/02 10:20:26;;;;;;;4.28;0.88;;;22.00;58.50;;;;;;5052314;28;20017;-43
2022/11/02 10:22:57;;;;;;;2.08;0.93;;;22.00;58.40;;;;;;5052877;28;20017;-46
2022/11/02 10:25:23;;;;;;;3.60;0.90;;;22.00;58.50;;;;;;5054594;28;20114;-44
2022/11/02 10:27:55;;;;;;;3.17;0.88;;;22.00;58.50;;;;;;5055392;28;20040;-44
2022/11/02 10:30:20;;;;;;;;;;;22.00;58.50;;;;;;5054677;28;20601;-44
2022/11/02 10:32:51;;;;;;;2.83;1.20;;;22.00;58.40;;;;;;5054944;28;19916;-44
2022/11/02 10:35:19;;;;;;;2.58;1.00;;;22.00;58.40;;;;;;5052718;28;20036;-44
2022/11/02 10:38:10;;;;;;;2.05;0.70;;;22.00;58.50;;;;;;5053721;28;20043;-45
2022/11/02 10:40:35;;;;;;;4.05;0.90;;;22.00;58.40;;;;;;5054120;28;20366;-43
2022/11/02 10:43:21;;;;;;;1.48;0.57;;;22.00;58.40;;;;;;5054956;28;20100;-50
2022/11/02 10:45:56;;;;;;;2.35;0.60;;;22.00;58.40;;;;;;5054169;28;20025;-44
2022/11/02 10:49:12;;;;;;;1.35;0.70;;;22.00;58.30;;;;;;5054106;28;20083;-43
2022/11/02 10:51:38;;;;;;;2.88;0.82;;;22.00;58.30;;;;;;5012025;28;20511;-45
2022/11/02 10:54:12;;;;;;;5.45;1.10;;;22.00;58.20;;;;;;5008200;28;20038;-50
2022/11/02 10:56:40;;;;;;;4.00;0.75;;;22.00;58.20;;;;;;5012605;28;20475;-43
2022/11/02 10:59:16;;;;;;;4.03;0.82;;;22.00;58.20;;;;;;5009236;28;20038;-49
2022/11/02 11:02:14;;;;;;;3.90;1.10;;;22.00;58.20;;;;;;5005927;28;20040;-43
2022/11/02 11:04:41;;;;;;;3.53;1.50;;;22.00;58.30;;;;;;5002264;28;20156;-43
2022/11/02 11:07:27;;;;;;;5.57;1.30;;;22.00;58.30;;;;;;5010419;28;20034;-44
2022/11/02 11:09:54;;;;;;;2.83;0.70;;;22.00;58.20;;;;;;5005768;28;20050;-44
2022/11/02 11:12:37;;;;;;;2.90;0.50;;;22.00;58.10;;;;;;5009086;28;20625;-43
2022/11/02 11:15:05;;;;;;;1.48;0.80;;;21.90;58.10;;;;;;5008034;28;20033;-50
2022/11/02 11:17:37;;;;;;;1.77;0.52;;;21.90;58.20;;;;;;4998833;28;20022;-43
2022/11/02 11:20:24;;;;;;;1.63;0.70;;;21.90;58.00;;;;;;5010933;28;20040;-50
2022/11/02 11:23:08;;;;;;;1.58;0.90;;;21.90;58.00;;;;;;5037662;28;20553;-44
2022/11/02 11:25:34;;;;;;;2.58;0.82;;;21.90;58.60;;;;;;5047249;28;20025;-44
2022/11/02 11:28:00;;;;;;;1.75;0.80;;;21.90;57.90;;;;;;5049086;28;20037;-44
2022/11/02 11:30:30;;;;;;;3.53;1.05;;;21.90;58.00;;;;;;5049590;28;20044;-44
2022/11/02 11:32:58;;;;;;;2.45;1.08;;;21.90;57.90;;;;;;5060745;28;20041;-44
2022/11/02 11:35:30;;;;;;;3.92;0.88;;;21.90;57.90;;;;;;5053376;28;20025;-44
2022/11/02 11:37:59;;;;;;;3.78;1.05;;;21.90;57.90;;;;;;5054594;28;20031;-44
2022/11/02 11:40:26;;;;;;;1.83;0.63;;;21.90;57.90;;;;;;5035126;28;20466;-44
2022/11/02 11:42:56;;;;;;;2.45;1.00;;;21.90;57.90;;;;;;5052906;28;20374;-44
2022/11/02 11:45:29;;;;;;;1.38;0.60;;;21.90;57.80;;;;;;5049041;28;20086;-44
2022/11/02 11:48:17;;;;;;;10.10;2.25;;;21.90;58.00;;;;;;5049190;28;20056;-45
2022/11/02 11:50:47;;;;;;;3.38;1.10;;;21.90;58.10;;;;;;5038022;28;20388;-44
2022/11/02 11:53:20;;;;;;;1.63;0.70;;;21.90;58.20;;;;;;5031088;28;20021;-44
2022/11/02 11:55:48;;;;;;;2.78;1.00;;;21.90;58.30;;;;;;5052042;28;20013;-44
2022/11/02 11:58:21;;;;;;;3.60;0.90;;;22.00;58.90;;;;;;5055053;28;20024;-46
2022/11/02 12:01:11;;;;;;;2.47;1.02;;;22.00;58.20;;;;;;5046482;28;20466;-45
2022/11/02 12:03:59;;;;;;;2.88;0.80;;;22.00;58.40;;;;;;5061191;28;20087;-47
2022/11/02 12:06:37;;;;;;;2.58;1.27;;;22.00;58.60;;;;;;5057450;28;20044;-49
2022/11/02 12:09:24;;;;;;;5.25;1.50;;;22.00;58.80;;;;;;5055135;28;20478;-51
2022/11/02 12:11:55;;;;;;;3.38;1.33;;;22.00;58.90;;;;;;5055395;28;20410;-48
2022/11/02 12:14:27;;;;;;;5.28;1.17;;;22.00;59.00;;;;;;5054847;28;20159;-45
2022/11/02 12:17:24;;;;;;;4.15;0.82;;;22.00;59.00;;;;;;5040764;28;20022;-44
2022/11/02 12:19:49;;;;;;;3.78;1.30;;;22.00;59.10;;;;;;5045943;28;20024;-44
2022/11/02 12:22:23;;;;;;;2.40;0.68;;;22.00;59.20;;;;;;5052751;28;20031;-44
2022/11/02 12:25:18;;;;;;;3.60;1.30;;;22.00;59.20;;;;;;5052504;28;20036;-45
2022/11/02 12:28:13;;;;;;;3.15;0.80;;;22.00;59.20;;;;;;5052986;28;20032;-45
2022/11/02 12:31:10;;;;;;;2.90;0.80;;;22.00;59.30;;;;;;5053118;28;20024;-45
2022/11/02 12:34:01;;;;;;;2.33;1.13;;;22.00;59.30;;;;;;5011623;28;20069;-45
2022/11/02 12:36:38;;;;;;;2.95;0.73;;;22.00;59.20;;;;;;5046842;28;20024;-45
2022/11/02 12:39:10;;;;;;;6.68;0.95;;;22.00;59.20;;;;;;5042984;28;20481;-51
2022/11/02 12:42:05;;;;;;;3.72;1.00;;;22.00;59.20;;;;;;5052673;28;20025;-45
2022/11/02 12:45:03;;;;;;;3.03;0.90;;;22.00;59.30;;;;;;5052895;28;20033;-45
2022/11/02 12:48:00;;;;;;;1.90;0.88;;;22.00;59.20;;;;;;5052753;28;20032;-45
2022/11/02 12:50:34;;;;;;;0.63;0.50;;;22.00;59.10;;;;;;5050676;28;20017;-45
2022/11/02 12:53:31;;;;;;;3.97;0.70;;;22.00;59.10;;;;;;5045272;28;20055;-50
2022/11/02 12:56:00;;;;;;;2.30;0.88;;;22.00;59.10;;;;;;5047501;28;20048;-44
2022/11/02 12:58:28;;;;;;;2.97;0.80;;;22.00;59.10;;;;;;5051707;28;20099;-44
2022/11/02 13:01:00;;;;;;;2.15;0.75;;;22.00;59.10;;;;;;5052157;28;20017;-44
2022/11/02 13:03:25;;;;;;;2.17;1.00;;;22.00;59.10;;;;;;5051847;28;20060;-45
2022/11/02 13:05:59;;;;;;;3.67;0.73;;;22.00;59.00;;;;;;5051820;28;20458;-44
2022/11/02 13:08:48;;;;;;;2.88;0.65;;;22.00;59.00;;;;;;5050156;28;20029;-45
2022/11/02 13:11:21;;;;;;;3.45;0.80;;;22.00;58.90;;;;;;5039619;28;20067;-45
2022/11/02 13:13:56;;;;;;;2.45;1.10;;;22.00;58.90;;;;;;5052165;28;20079;-45
2022/11/02 13:16:36;;;;;;;2.10;0.90;;;22.00;58.80;;;;;;5051428;28;20020;-45
2022/11/02 13:19:04;;;;;;;2.88;0.80;;;22.00;58.70;;;;;;5051923;28;20131;-51